KLDM/LDM METAR and TAF weather

Enter ICAO airport designator
Station Type Date Time Source
KLDM METAR 2019/02/18 03:56 UTC NOAA

KLDM 180356Z AUTO 05006KT 7SM SCT010 SCT019 OVC035 M05/M07 A2999 RMK AO2 T10501073


Station Type Date Time Source
KLDM Decoded METAR 2019/02/18 03:56 UTC NOAA

Ludington, Mason County Airport, MI, United States (KLDM) 43-58N 86-24W
Feb 17, 2019 - 10:56 PM EST / 2019.02.18 0356 UTC
Wind: from the NE (050 degrees) at 7 MPH (6 KT):0
Visibility: 7 mile(s):0
Sky conditions: overcast
Temperature: 23.0 F (-5.0 C)
Windchill: 14 F (-10 C):1
Dew Point: 18.9 F (-7.3 C)
Relative Humidity: 83%
Pressure (altimeter): 29.99 in. Hg (1015 hPa)
ob: KLDM 180356Z AUTO 05006KT 7SM SCT010 SCT019 OVC035 M05/M07 A2999 RMK AO2 T10501073
cycle: 4

Station Type Date Time Source
KLDM TAF UTC NOAA

Error!


Example: see airport list